sensor_id;sensor_type;location;lat;lon;timestamp;temperature;humidity
57434;DHT22;43277;52.672;6.984;2024-01-15T00:00:18;2.00;99.90
57434;DHT22;43277;52.672;6.984;2024-01-15T00:02:44;2.00;99.90
57434;DHT22;43277;52.672;6.984;2024-01-15T00:05:10;1.90;99.90
57434;DHT22;43277;52.672;6.984;2024-01-15T00:07:36;2.00;99.90
57434;DHT22;43277;52.672;6.984;2024-01-15T00:10:02;2.00;99.90
57434;DHT22;43277;52.672;6.984;2024-01-15T00:12:27;1.90;99.90
57434;DHT22;43277;52.672;6.984;2024-01-15T00:14:53;2.00;99.90
57434;DHT22;43277;52.672;6.984;2024-01-15T00:17:19;1.90;99.90
57434;DHT22;43277;52.672;6.984;2024-01-15T00:19:44;2.00;99.90
57434;DHT22;43277;52.672;6.984;2024-01-15T00:22:10;2.10;99.90
57434;DHT22;43277;52.672;6.984;2024-01-15T00:24:35;2.00;99.90
57434;DHT22;43277;52.672;6.984;2024-01-15T00:27:01;2.00;99.90
57434;DHT22;43277;52.672;6.984;2024-01-15T00:29:27;1.90;99.90
57434;DHT22;43277;52.672;6.984;2024-01-15T00:31:52;2.00;99.90
57434;DHT22;43277;52.672;6.984;2024-01-15T00:34:18;2.00;99.90
57434;DHT22;43277;52.672;6.984;2024-01-15T00:36:43;2.00;99.90
57434;DHT22;43277;52.672;6.984;2024-01-15T00:39:09;1.90;99.90
57434;DHT22;43277;52.672;6.984;2024-01-15T00:41:36;1.90;99.90
57434;DHT22;43277;52.672;6.984;2024-01-15T00:44:01;1.90;99.90
57434;DHT22;43277;52.672;6.984;2024-01-15T00:46:28;1.90;99.90
57434;DHT22;43277;52.672;6.984;2024-01-15T00:48:54;1.80;99.90
57434;DHT22;43277;52.672;6.984;2024-01-15T00:51:19;1.80;99.90
57434;DHT22;43277;52.672;6.984;2024-01-15T00:53:45;1.90;99.90
57434;DHT22;43277;52.672;6.984;2024-01-15T00:56:10;1.90;99.90
57434;DHT22;43277;52.672;6.984;2024-01-15T00:58:36;1.80;99.90
57434;DHT22;43277;52.672;6.984;2024-01-15T01:01:02;1.90;99.90
57434;DHT22;43277;52.672;6.984;2024-01-15T01:03:27;1.90;99.90
57434;DHT22;43277;52.672;6.984;2024-01-15T01:05:53;1.90;99.90
57434;DHT22;43277;52.672;6.984;2024-01-15T01:08:18;1.90;99.90
57434;DHT22;43277;52.672;6.984;2024-01-15T01:10:44;1.90;99.90
57434;DHT22;43277;52.672;6.984;2024-01-15T01:13:10;1.90;99.90
57434;DHT22;43277;52.672;6.984;2024-01-15T01:15:35;1.90;99.90
57434;DHT22;43277;52.672;6.984;2024-01-15T01:18:01;1.90;99.90
57434;DHT22;43277;52.672;6.984;2024-01-15T01:20:26;2.00;99.90
57434;DHT22;43277;52.672;6.984;2024-01-15T01:22:52;1.90;99.90
57434;DHT22;43277;52.672;6.984;2024-01-15T01:25:17;2.00;99.90
57434;DHT22;43277;52.672;6.984;2024-01-15T01:27:43;2.10;99.90
57434;DHT22;43277;52.672;6.984;2024-01-15T01:30:09;2.00;99.90
57434;DHT22;43277;52.672;6.984;2024-01-15T01:32:34;2.10;99.90
57434;DHT22;43277;52.672;6.984;2024-01-15T01:35:00;2.20;99.90
57434;DHT22;43277;52.672;6.984;2024-01-15T01:37:26;2.20;99.90
57434;DHT22;43277;52.672;6.984;2024-01-15T01:39:51;2.20;99.90
57434;DHT22;43277;52.672;6.984;2024-01-15T01:42:17;2.30;99.90
57434;DHT22;43277;52.672;6.984;2024-01-15T01:44:43;2.20;99.90
57434;DHT22;43277;52.672;6.984;2024-01-15T01:47:08;2.20;99.90
57434;DHT22;43277;52.672;6.984;2024-01-15T01:49:34;2.20;99.90
57434;DHT22;43277;52.672;6.984;2024-01-15T01:52:02;2.20;99.90
57434;DHT22;43277;52.672;6.984;2024-01-15T01:54:29;2.10;99.90
57434;DHT22;43277;52.672;6.984;2024-01-15T01:56:57;2.20;99.90
57434;DHT22;43277;52.672;6.984;2024-01-15T01:59:25;2.20;99.90
57434;DHT22;43277;52.672;6.984;2024-01-15T02:01:51;2.10;99.90
57434;DHT22;43277;52.672;6.984;2024-01-15T02:04:18;2.00;99.90
57434;DHT22;43277;52.672;6.984;2024-01-15T02:06:45;2.00;99.90
57434;DHT22;43277;52.672;6.984;2024-01-15T02:09:12;2.00;99.90
57434;DHT22;43277;52.672;6.984;2024-01-15T02:11:41;2.00;99.90
57434;DHT22;43277;52.672;6.984;2024-01-15T02:14:07;1.90;99.90
57434;DHT22;43277;52.672;6.984;2024-01-15T02:16:32;1.90;99.90
57434;DHT22;43277;52.672;6.984;2024-01-15T02:18:58;1.90;99.90
57434;DHT22;43277;52.672;6.984;2024-01-15T02:21:23;1.80;99.90
57434;DHT22;43277;52.672;6.984;2024-01-15T02:23:51;1.70;99.90
57434;DHT22;43277;52.672;6.984;2024-01-15T02:26:17;1.70;99.90
57434;DHT22;43277;52.672;6.984;2024-01-15T02:28:43;1.60;99.90
57434;DHT22;43277;52.672;6.984;2024-01-15T02:31:09;1.50;99.90
57434;DHT22;43277;52.672;6.984;2024-01-15T02:33:35;1.50;99.90
57434;DHT22;43277;52.672;6.984;2024-01-15T02:36:01;1.60;99.90
57434;DHT22;43277;52.672;6.984;2024-01-15T02:38:26;1.50;99.90
57434;DHT22;43277;52.672;6.984;2024-01-15T02:40:52;1.50;99.90
57434;DHT22;43277;52.672;6.984;2024-01-15T02:43:17;1.50;99.90
57434;DHT22;43277;52.672;6.984;2024-01-15T02:45:45;1.40;99.90
57434;DHT22;43277;52.672;6.984;2024-01-15T02:48:11;1.40;99.90
57434;DHT22;43277;52.672;6.984;2024-01-15T02:50:36;1.40;99.90
57434;DHT22;43277;52.672;6.984;2024-01-15T02:53:02;1.40;99.90
57434;DHT22;43277;52.672;6.984;2024-01-15T02:55:27;1.40;99.90
57434;DHT22;43277;52.672;6.984;2024-01-15T02:57:54;1.40;99.90
57434;DHT22;43277;52.672;6.984;2024-01-15T03:00:20;1.50;99.90
57434;DHT22;43277;52.672;6.984;2024-01-15T03:02:46;1.50;99.90
57434;DHT22;43277;52.672;6.984;2024-01-15T03:05:12;1.60;99.90
57434;DHT22;43277;52.672;6.984;2024-01-15T03:07:37;1.60;99.90
57434;DHT22;43277;52.672;6.984;2024-01-15T03:10:04;1.60;99.90
57434;DHT22;43277;52.672;6.984;2024-01-15T03:12:30;1.60;99.90
57434;DHT22;43277;52.672;6.984;2024-01-15T03:14:55;1.70;99.90
57434;DHT22;43277;52.672;6.984;2024-01-15T03:17:21;1.70;99.90
57434;DHT22;43277;52.672;6.984;2024-01-15T03:19:47;1.70;99.90
57434;DHT22;43277;52.672;6.984;2024-01-15T03:22:12;1.80;99.90
57434;DHT22;43277;52.672;6.984;2024-01-15T03:24:38;1.80;99.90
57434;DHT22;43277;52.672;6.984;2024-01-15T03:27:03;1.70;99.90
57434;DHT22;43277;52.672;6.984;2024-01-15T03:29:29;1.80;99.90
57434;DHT22;43277;52.672;6.984;2024-01-15T03:31:55;1.80;99.90
57434;DHT22;43277;52.672;6.984;2024-01-15T03:34:20;1.80;99.90
57434;DHT22;43277;52.672;6.984;2024-01-15T03:36:46;1.90;99.90
57434;DHT22;43277;52.672;6.984;2024-01-15T03:39:12;1.80;99.90
57434;DHT22;43277;52.672;6.984;2024-01-15T03:41:37;1.80;99.90
57434;DHT22;43277;52.672;6.984;2024-01-15T03:44:03;1.90;99.90
57434;DHT22;43277;52.672;6.984;2024-01-15T03:46:29;1.80;99.90
57434;DHT22;43277;52.672;6.984;2024-01-15T03:48:54;1.80;99.90
57434;DHT22;43277;52.672;6.984;2024-01-15T03:51:20;1.80;99.90
57434;DHT22;43277;52.672;6.984;2024-01-15T03:53:46;1.70;99.90
57434;DHT22;43277;52.672;6.984;2024-01-15T03:56:12;1.70;99.90
57434;DHT22;43277;52.672;6.984;2024-01-15T03:58:37;1.70;99.90
57434;DHT22;43277;52.672;6.984;2024-01-15T04:01:03;1.70;99.90
57434;DHT22;43277;52.672;6.984;2024-01-15T04:03:32;1.70;99.90
57434;DHT22;43277;52.672;6.984;2024-01-15T04:05:58;1.60;99.90
57434;DHT22;43277;52.672;6.984;2024-01-15T04:08:23;1.80;99.90
57434;DHT22;43277;52.672;6.984;2024-01-15T04:10:49;1.80;99.90
57434;DHT22;43277;52.672;6.984;2024-01-15T04:13:14;1.90;99.90
57434;DHT22;43277;52.672;6.984;2024-01-15T04:15:40;1.80;99.90
57434;DHT22;43277;52.672;6.984;2024-01-15T04:18:06;1.80;99.90
57434;DHT22;43277;52.672;6.984;2024-01-15T04:20:31;1.80;99.90
57434;DHT22;43277;52.672;6.984;2024-01-15T04:22:57;1.80;99.90
57434;DHT22;43277;52.672;6.984;2024-01-15T04:25:22;1.80;99.90
57434;DHT22;43277;52.672;6.984;2024-01-15T04:27:48;1.80;99.90
57434;DHT22;43277;52.672;6.984;2024-01-15T04:30:14;1.80;99.90
57434;DHT22;43277;52.672;6.984;2024-01-15T04:32:39;1.80;99.90
57434;DHT22;43277;52.672;6.984;2024-01-15T04:35:05;1.80;99.90
57434;DHT22;43277;52.672;6.984;2024-01-15T04:37:30;1.80;99.90
57434;DHT22;43277;52.672;6.984;2024-01-15T04:39:56;1.80;99.90
57434;DHT22;43277;52.672;6.984;2024-01-15T04:42:23;1.90;99.90
57434;DHT22;43277;52.672;6.984;2024-01-15T04:44:49;1.90;99.90
57434;DHT22;43277;52.672;6.984;2024-01-15T04:47:14;1.90;99.90
57434;DHT22;43277;52.672;6.984;2024-01-15T04:49:40;1.90;99.90
57434;DHT22;43277;52.672;6.984;2024-01-15T04:52:06;1.90;99.90
57434;DHT22;43277;52.672;6.984;2024-01-15T04:54:31;2.00;99.90
57434;DHT22;43277;52.672;6.984;2024-01-15T04:56:57;2.00;99.90
57434;DHT22;43277;52.672;6.984;2024-01-15T04:59:23;2.10;99.90
57434;DHT22;43277;52.672;6.984;2024-01-15T05:01:48;2.10;99.90
57434;DHT22;43277;52.672;6.984;2024-01-15T05:04:14;2.10;99.90
57434;DHT22;43277;52.672;6.984;2024-01-15T05:06:40;2.10;99.90
57434;DHT22;43277;52.672;6.984;2024-01-15T05:09:06;2.00;99.90
57434;DHT22;43277;52.672;6.984;2024-01-15T05:11:32;1.90;99.90
57434;DHT22;43277;52.672;6.984;2024-01-15T05:13:58;1.90;99.90
57434;DHT22;43277;52.672;6.984;2024-01-15T05:16:23;1.90;99.90
57434;DHT22;43277;52.672;6.984;2024-01-15T05:18:49;1.90;99.90
57434;DHT22;43277;52.672;6.984;2024-01-15T05:21:15;2.00;99.90
57434;DHT22;43277;52.672;6.984;2024-01-15T05:23:40;1.90;99.90
57434;DHT22;43277;52.672;6.984;2024-01-15T05:26:06;2.00;99.90
57434;DHT22;43277;52.672;6.984;2024-01-15T05:28:31;2.00;99.90
57434;DHT22;43277;52.672;6.984;2024-01-15T05:30:57;1.90;99.90
57434;DHT22;43277;52.672;6.984;2024-01-15T05:33:23;1.90;99.90
57434;DHT22;43277;52.672;6.984;2024-01-15T05:35:49;1.90;99.90
57434;DHT22;43277;52.672;6.984;2024-01-15T05:38:16;2.00;99.90
57434;DHT22;43277;52.672;6.984;2024-01-15T05:40:42;1.90;99.90
57434;DHT22;43277;52.672;6.984;2024-01-15T05:43:07;2.00;99.90
57434;DHT22;43277;52.672;6.984;2024-01-15T05:45:34;1.90;99.90
57434;DHT22;43277;52.672;6.984;2024-01-15T05:48:01;1.80;99.90
57434;DHT22;43277;52.672;6.984;2024-01-15T05:50:26;1.80;99.90
57434;DHT22;43277;52.672;6.984;2024-01-15T05:52:52;1.80;99.90
57434;DHT22;43277;52.672;6.984;2024-01-15T05:55:18;1.70;99.90
57434;DHT22;43277;52.672;6.984;2024-01-15T05:57:44;1.70;99.90
57434;DHT22;43277;52.672;6.984;2024-01-15T06:00:10;1.70;99.90
57434;DHT22;43277;52.672;6.984;2024-01-15T06:02:39;1.70;99.90
57434;DHT22;43277;52.672;6.984;2024-01-15T06:05:05;1.60;99.90
57434;DHT22;43277;52.672;6.984;2024-01-15T06:07:33;1.60;99.90
57434;DHT22;43277;52.672;6.984;2024-01-15T06:09:59;1.50;99.90
57434;DHT22;43277;52.672;6.984;2024-01-15T06:12:24;1.50;99.90
57434;DHT22;43277;52.672;6.984;2024-01-15T06:14:50;1.60;99.90
57434;DHT22;43277;52.672;6.984;2024-01-15T06:17:16;1.60;99.90
57434;DHT22;43277;52.672;6.984;2024-01-15T06:19:41;1.50;99.90
57434;DHT22;43277;52.672;6.984;2024-01-15T06:22:07;1.50;99.90
57434;DHT22;43277;52.672;6.984;2024-01-15T06:24:32;1.60;99.90
57434;DHT22;43277;52.672;6.984;2024-01-15T06:26:59;1.50;99.90
57434;DHT22;43277;52.672;6.984;2024-01-15T06:29:26;1.40;99.90
57434;DHT22;43277;52.672;6.984;2024-01-15T06:31:52;1.30;99.90
57434;DHT22;43277;52.672;6.984;2024-01-15T06:34:18;1.40;99.90
57434;DHT22;43277;52.672;6.984;2024-01-15T06:36:44;1.50;99.90
57434;DHT22;43277;52.672;6.984;2024-01-15T06:39:09;1.50;99.90
57434;DHT22;43277;52.672;6.984;2024-01-15T06:41:35;1.50;99.90
57434;DHT22;43277;52.672;6.984;2024-01-15T06:44:06;1.50;99.90
57434;DHT22;43277;52.672;6.984;2024-01-15T06:46:32;1.50;99.90
57434;DHT22;43277;52.672;6.984;2024-01-15T06:48:58;1.50;99.90
57434;DHT22;43277;52.672;6.984;2024-01-15T06:51:23;1.50;99.90
57434;DHT22;43277;52.672;6.984;2024-01-15T06:53:49;1.50;99.90
57434;DHT22;43277;52.672;6.984;2024-01-15T06:56:14;1.60;99.90
57434;DHT22;43277;52.672;6.984;2024-01-15T06:58:40;1.70;99.90
57434;DHT22;43277;52.672;6.984;2024-01-15T07:01:05;1.60;99.90
57434;DHT22;43277;52.672;6.984;2024-01-15T07:03:31;1.60;99.90
57434;DHT22;43277;52.672;6.984;2024-01-15T07:05:58;1.60;99.90
57434;DHT22;43277;52.672;6.984;2024-01-15T07:08:23;1.60;99.90
57434;DHT22;43277;52.672;6.984;2024-01-15T07:10:49;1.60;99.90
57434;DHT22;43277;52.672;6.984;2024-01-15T07:13:14;1.60;99.90
57434;DHT22;43277;52.672;6.984;2024-01-15T07:15:40;1.70;99.90
57434;DHT22;43277;52.672;6.984;2024-01-15T07:18:05;1.60;99.90
57434;DHT22;43277;52.672;6.984;2024-01-15T07:20:31;1.50;99.90
57434;DHT22;43277;52.672;6.984;2024-01-15T07:22:57;1.50;99.90
57434;DHT22;43277;52.672;6.984;2024-01-15T07:25:23;1.50;99.90
57434;DHT22;43277;52.672;6.984;2024-01-15T07:27:48;1.50;99.90
57434;DHT22;43277;52.672;6.984;2024-01-15T07:30:14;1.50;99.90
57434;DHT22;43277;52.672;6.984;2024-01-15T07:32:40;1.40;99.90
57434;DHT22;43277;52.672;6.984;2024-01-15T07:35:06;1.30;99.90
57434;DHT22;43277;52.672;6.984;2024-01-15T07:37:32;1.30;99.90
57434;DHT22;43277;52.672;6.984;2024-01-15T07:39:58;1.20;99.90
57434;DHT22;43277;52.672;6.984;2024-01-15T07:42:24;1.20;99.90
57434;DHT22;43277;52.672;6.984;2024-01-15T07:44:50;1.30;99.90
57434;DHT22;43277;52.672;6.984;2024-01-15T07:47:17;1.30;99.90
57434;DHT22;43277;52.672;6.984;2024-01-15T07:49:42;1.20;99.90
57434;DHT22;43277;52.672;6.984;2024-01-15T07:52:08;1.20;99.90
57434;DHT22;43277;52.672;6.984;2024-01-15T07:54:34;1.20;99.90
57434;DHT22;43277;52.672;6.984;2024-01-15T07:57:00;1.20;99.90
57434;DHT22;43277;52.672;6.984;2024-01-15T07:59:27;1.30;99.90
57434;DHT22;43277;52.672;6.984;2024-01-15T08:01:53;1.30;99.90
57434;DHT22;43277;52.672;6.984;2024-01-15T08:04:19;1.40;99.90
57434;DHT22;43277;52.672;6.984;2024-01-15T08:06:45;1.50;99.90
57434;DHT22;43277;52.672;6.984;2024-01-15T08:09:11;1.40;99.90
57434;DHT22;43277;52.672;6.984;2024-01-15T08:11:41;1.40;99.90
57434;DHT22;43277;52.672;6.984;2024-01-15T08:14:07;1.40;99.90
57434;DHT22;43277;52.672;6.984;2024-01-15T08:16:33;1.30;99.90
57434;DHT22;43277;52.672;6.984;2024-01-15T08:18:59;1.30;99.90
57434;DHT22;43277;52.672;6.984;2024-01-15T08:21:24;1.30;99.90
57434;DHT22;43277;52.672;6.984;2024-01-15T08:23:50;1.40;99.90
57434;DHT22;43277;52.672;6.984;2024-01-15T08:26:16;1.30;99.90
57434;DHT22;43277;52.672;6.984;2024-01-15T08:28:41;1.30;99.90
57434;DHT22;43277;52.672;6.984;2024-01-15T08:31:07;1.30;99.90
57434;DHT22;43277;52.672;6.984;2024-01-15T08:33:35;1.30;99.90
57434;DHT22;43277;52.672;6.984;2024-01-15T08:36:01;1.40;99.90
57434;DHT22;43277;52.672;6.984;2024-01-15T08:38:27;1.40;99.90
57434;DHT22;43277;52.672;6.984;2024-01-15T08:40:52;1.40;99.90
57434;DHT22;43277;52.672;6.984;2024-01-15T08:43:19;1.40;99.90
57434;DHT22;43277;52.672;6.984;2024-01-15T08:45:44;1.50;99.90
57434;DHT22;43277;52.672;6.984;2024-01-15T08:48:10;1.50;99.90
57434;DHT22;43277;52.672;6.984;2024-01-15T08:50:36;1.40;99.90
57434;DHT22;43277;52.672;6.984;2024-01-15T08:53:01;1.40;99.90
57434;DHT22;43277;52.672;6.984;2024-01-15T08:55:27;1.30;99.90
57434;DHT22;43277;52.672;6.984;2024-01-15T08:57:53;1.50;99.90
57434;DHT22;43277;52.672;6.984;2024-01-15T09:00:18;1.50;99.90
57434;DHT22;43277;52.672;6.984;2024-01-15T09:02:44;1.50;99.90
57434;DHT22;43277;52.672;6.984;2024-01-15T09:05:10;1.50;99.90
57434;DHT22;43277;52.672;6.984;2024-01-15T09:07:36;1.60;99.90
57434;DHT22;43277;52.672;6.984;2024-01-15T09:10:01;1.70;99.90
57434;DHT22;43277;52.672;6.984;2024-01-15T09:12:27;1.70;99.90
57434;DHT22;43277;52.672;6.984;2024-01-15T09:14:53;1.70;99.90
57434;DHT22;43277;52.672;6.984;2024-01-15T09:17:20;1.80;99.90
57434;DHT22;43277;52.672;6.984;2024-01-15T09:19:45;1.80;99.90
57434;DHT22;43277;52.672;6.984;2024-01-15T09:22:12;1.70;99.90
57434;DHT22;43277;52.672;6.984;2024-01-15T09:24:40;1.70;99.90
57434;DHT22;43277;52.672;6.984;2024-01-15T09:27:06;1.70;99.90
57434;DHT22;43277;52.672;6.984;2024-01-15T09:29:32;1.90;99.90
57434;DHT22;43277;52.672;6.984;2024-01-15T09:31:58;1.90;99.90
57434;DHT22;43277;52.672;6.984;2024-01-15T09:34:24;1.80;99.90
57434;DHT22;43277;52.672;6.984;2024-01-15T09:36:49;1.90;99.90
57434;DHT22;43277;52.672;6.984;2024-01-15T09:39:15;2.10;99.90
57434;DHT22;43277;52.672;6.984;2024-01-15T09:41:41;2.10;99.90
57434;DHT22;43277;52.672;6.984;2024-01-15T09:44:08;2.10;99.90
57434;DHT22;43277;52.672;6.984;2024-01-15T09:46:34;2.10;99.90
57434;DHT22;43277;52.672;6.984;2024-01-15T09:49:00;2.10;99.90
57434;DHT22;43277;52.672;6.984;2024-01-15T09:51:30;2.10;99.90
57434;DHT22;43277;52.672;6.984;2024-01-15T09:53:57;2.10;99.90
57434;DHT22;43277;52.672;6.984;2024-01-15T09:56:23;2.20;99.90
57434;DHT22;43277;52.672;6.984;2024-01-15T09:58:50;2.20;99.90
57434;DHT22;43277;52.672;6.984;2024-01-15T10:01:20;2.20;99.90
57434;DHT22;43277;52.672;6.984;2024-01-15T10:03:46;2.20;99.90
57434;DHT22;43277;52.672;6.984;2024-01-15T10:06:15;2.10;99.90
57434;DHT22;43277;52.672;6.984;2024-01-15T10:08:47;2.10;99.90
57434;DHT22;43277;52.672;6.984;2024-01-15T10:11:13;2.10;99.90
57434;DHT22;43277;52.672;6.984;2024-01-15T10:13:39;2.10;99.90
57434;DHT22;43277;52.672;6.984;2024-01-15T10:16:05;2.00;99.90
57434;DHT22;43277;52.672;6.984;2024-01-15T10:18:31;2.10;99.90
57434;DHT22;43277;52.672;6.984;2024-01-15T10:20:57;2.00;99.90
57434;DHT22;43277;52.672;6.984;2024-01-15T10:23:24;2.00;99.90
57434;DHT22;43277;52.672;6.984;2024-01-15T10:25:49;2.20;99.90
57434;DHT22;43277;52.672;6.984;2024-01-15T10:28:19;2.30;99.90
57434;DHT22;43277;52.672;6.984;2024-01-15T10:30:46;2.30;99.90
57434;DHT22;43277;52.672;6.984;2024-01-15T10:33:11;2.20;99.90
57434;DHT22;43277;52.672;6.984;2024-01-15T10:35:38;2.30;99.90
57434;DHT22;43277;52.672;6.984;2024-01-15T10:38:05;2.30;99.90
57434;DHT22;43277;52.672;6.984;2024-01-15T10:40:31;2.30;99.90
57434;DHT22;43277;52.672;6.984;2024-01-15T10:43:00;2.40;99.90
57434;DHT22;43277;52.672;6.984;2024-01-15T10:45:25;2.40;99.90
57434;DHT22;43277;52.672;6.984;2024-01-15T10:47:51;2.60;99.90
57434;DHT22;43277;52.672;6.984;2024-01-15T10:50:17;2.80;99.90
57434;DHT22;43277;52.672;6.984;2024-01-15T10:52:43;2.80;99.90
57434;DHT22;43277;52.672;6.984;2024-01-15T10:55:09;2.80;99.90
57434;DHT22;43277;52.672;6.984;2024-01-15T10:57:38;2.80;99.90
57434;DHT22;43277;52.672;6.984;2024-01-15T11:00:05;2.80;99.90
57434;DHT22;43277;52.672;6.984;2024-01-15T11:02:36;2.70;99.90
57434;DHT22;43277;52.672;6.984;2024-01-15T11:05:03;2.70;99.90
57434;DHT22;43277;52.672;6.984;2024-01-15T11:07:31;2.70;99.90
57434;DHT22;43277;52.672;6.984;2024-01-15T11:09:57;2.60;99.90
57434;DHT22;43277;52.672;6.984;2024-01-15T11:12:25;2.60;99.90
57434;DHT22;43277;52.672;6.984;2024-01-15T11:14:51;2.60;99.90
57434;DHT22;43277;52.672;6.984;2024-01-15T11:17:20;2.70;99.90
57434;DHT22;43277;52.672;6.984;2024-01-15T11:19:47;2.60;99.90
57434;DHT22;43277;52.672;6.984;2024-01-15T11:25:01;2.40;99.90
57434;DHT22;43277;52.672;6.984;2024-01-15T11:27:47;2.40;99.90
57434;DHT22;43277;52.672;6.984;2024-01-15T11:30:13;2.40;99.90
57434;DHT22;43277;52.672;6.984;2024-01-15T11:32:40;2.40;99.90
57434;DHT22;43277;52.672;6.984;2024-01-15T11:35:09;2.50;99.90
57434;DHT22;43277;52.672;6.984;2024-01-15T11:40:20;2.60;99.90
57434;DHT22;43277;52.672;6.984;2024-01-15T11:42:47;2.60;99.90
57434;DHT22;43277;52.672;6.984;2024-01-15T11:45:15;2.60;99.90
57434;DHT22;43277;52.672;6.984;2024-01-15T11:50:43;2.70;99.90
57434;DHT22;43277;52.672;6.984;2024-01-15T11:53:36;2.70;99.90
57434;DHT22;43277;52.672;6.984;2024-01-15T11:56:03;2.80;99.90
57434;DHT22;43277;52.672;6.984;2024-01-15T11:58:31;2.80;99.90
57434;DHT22;43277;52.672;6.984;2024-01-15T12:00:57;2.70;99.90
57434;DHT22;43277;52.672;6.984;2024-01-15T12:03:24;2.80;99.90
57434;DHT22;43277;52.672;6.984;2024-01-15T12:05:51;2.80;99.90
57434;DHT22;43277;52.672;6.984;2024-01-15T12:08:26;2.80;99.90
57434;DHT22;43277;52.672;6.984;2024-01-15T12:10:52;2.80;99.90
57434;DHT22;43277;52.672;6.984;2024-01-15T12:13:19;2.80;99.90
57434;DHT22;43277;52.672;6.984;2024-01-15T12:15:46;2.80;99.90
57434;DHT22;43277;52.672;6.984;2024-01-15T12:18:14;2.80;99.90
57434;DHT22;43277;52.672;6.984;2024-01-15T12:20:41;2.80;99.90
57434;DHT22;43277;52.672;6.984;2024-01-15T12:23:08;2.70;99.90
57434;DHT22;43277;52.672;6.984;2024-01-15T12:25:34;2.70;99.90
57434;DHT22;43277;52.672;6.984;2024-01-15T12:28:00;2.60;99.90
57434;DHT22;43277;52.672;6.984;2024-01-15T12:30:30;2.40;99.90
57434;DHT22;43277;52.672;6.984;2024-01-15T12:33:01;2.30;99.90
57434;DHT22;43277;52.672;6.984;2024-01-15T12:35:29;2.20;99.90
57434;DHT22;43277;52.672;6.984;2024-01-15T12:37:55;2.20;99.90
57434;DHT22;43277;52.672;6.984;2024-01-15T12:40:22;2.10;99.90
57434;DHT22;43277;52.672;6.984;2024-01-15T12:42:48;2.00;99.90
57434;DHT22;43277;52.672;6.984;2024-01-15T12:45:14;2.00;99.90
57434;DHT22;43277;52.672;6.984;2024-01-15T12:47:41;1.80;99.90
57434;DHT22;43277;52.672;6.984;2024-01-15T12:50:08;1.80;99.90
57434;DHT22;43277;52.672;6.984;2024-01-15T12:52:34;1.70;99.90
57434;DHT22;43277;52.672;6.984;2024-01-15T12:55:00;1.60;99.90
57434;DHT22;43277;52.672;6.984;2024-01-15T12:57:25;1.50;99.90
57434;DHT22;43277;52.672;6.984;2024-01-15T12:59:51;1.50;99.90
57434;DHT22;43277;52.672;6.984;2024-01-15T13:02:17;1.40;99.90
57434;DHT22;43277;52.672;6.984;2024-01-15T13:04:42;1.40;99.90
57434;DHT22;43277;52.672;6.984;2024-01-15T13:07:09;1.40;99.90
57434;DHT22;43277;52.672;6.984;2024-01-15T13:09:35;1.50;99.90
57434;DHT22;43277;52.672;6.984;2024-01-15T13:12:02;1.50;99.90
57434;DHT22;43277;52.672;6.984;2024-01-15T13:14:28;1.60;99.90
57434;DHT22;43277;52.672;6.984;2024-01-15T13:16:53;1.50;99.90
57434;DHT22;43277;52.672;6.984;2024-01-15T13:19:19;1.60;99.90
57434;DHT22;43277;52.672;6.984;2024-01-15T13:21:47;1.60;99.90
57434;DHT22;43277;52.672;6.984;2024-01-15T13:24:13;1.70;99.90
57434;DHT22;43277;52.672;6.984;2024-01-15T13:26:39;1.80;99.90
57434;DHT22;43277;52.672;6.984;2024-01-15T13:29:05;1.80;99.90
57434;DHT22;43277;52.672;6.984;2024-01-15T13:31:34;1.90;99.90
57434;DHT22;43277;52.672;6.984;2024-01-15T13:33:59;1.90;99.90
57434;DHT22;43277;52.672;6.984;2024-01-15T13:36:26;1.90;99.90
57434;DHT22;43277;52.672;6.984;2024-01-15T13:38:52;1.90;99.90
57434;DHT22;43277;52.672;6.984;2024-01-15T13:41:19;1.90;99.90
57434;DHT22;43277;52.672;6.984;2024-01-15T13:43:49;1.90;99.90
57434;DHT22;43277;52.672;6.984;2024-01-15T13:46:15;1.90;99.90
57434;DHT22;43277;52.672;6.984;2024-01-15T13:48:40;1.90;99.90
57434;DHT22;43277;52.672;6.984;2024-01-15T13:51:06;1.90;99.90
57434;DHT22;43277;52.672;6.984;2024-01-15T13:53:32;2.00;99.90
57434;DHT22;43277;52.672;6.984;2024-01-15T13:55:57;2.00;99.90
57434;DHT22;43277;52.672;6.984;2024-01-15T13:58:23;2.10;99.90
57434;DHT22;43277;52.672;6.984;2024-01-15T14:00:51;2.10;99.90
57434;DHT22;43277;52.672;6.984;2024-01-15T14:03:17;2.10;99.90
57434;DHT22;43277;52.672;6.984;2024-01-15T14:05:44;2.20;99.90
57434;DHT22;43277;52.672;6.984;2024-01-15T14:08:09;2.20;99.90
57434;DHT22;43277;52.672;6.984;2024-01-15T14:10:35;2.30;99.90
57434;DHT22;43277;52.672;6.984;2024-01-15T14:13:00;2.30;99.90
57434;DHT22;43277;52.672;6.984;2024-01-15T14:15:27;2.20;99.90
57434;DHT22;43277;52.672;6.984;2024-01-15T14:17:52;2.20;99.90
57434;DHT22;43277;52.672;6.984;2024-01-15T14:20:18;2.20;99.90
57434;DHT22;43277;52.672;6.984;2024-01-15T14:22:44;2.20;99.90
57434;DHT22;43277;52.672;6.984;2024-01-15T14:25:10;2.10;99.90
57434;DHT22;43277;52.672;6.984;2024-01-15T14:27:35;2.10;99.90
57434;DHT22;43277;52.672;6.984;2024-01-15T14:30:02;2.00;99.90
57434;DHT22;43277;52.672;6.984;2024-01-15T14:32:28;2.10;99.90
57434;DHT22;43277;52.672;6.984;2024-01-15T14:34:53;2.00;99.90
57434;DHT22;43277;52.672;6.984;2024-01-15T14:37:19;2.00;99.90
57434;DHT22;43277;52.672;6.984;2024-01-15T14:39:46;2.10;99.90
57434;DHT22;43277;52.672;6.984;2024-01-15T14:42:11;2.10;99.90
57434;DHT22;43277;52.672;6.984;2024-01-15T14:44:37;2.10;99.90
57434;DHT22;43277;52.672;6.984;2024-01-15T14:47:06;2.10;99.90
57434;DHT22;43277;52.672;6.984;2024-01-15T14:49:33;2.10;99.90
57434;DHT22;43277;52.672;6.984;2024-01-15T14:51:59;2.10;99.90
57434;DHT22;43277;52.672;6.984;2024-01-15T14:54:24;2.10;99.90
57434;DHT22;43277;52.672;6.984;2024-01-15T14:56:51;2.10;99.90
57434;DHT22;43277;52.672;6.984;2024-01-15T14:59:17;2.10;99.90
57434;DHT22;43277;52.672;6.984;2024-01-15T15:01:42;2.10;99.90
57434;DHT22;43277;52.672;6.984;2024-01-15T15:04:08;2.10;99.90
57434;DHT22;43277;52.672;6.984;2024-01-15T15:06:36;2.10;99.90
57434;DHT22;43277;52.672;6.984;2024-01-15T15:09:02;2.10;99.90
57434;DHT22;43277;52.672;6.984;2024-01-15T15:11:34;2.10;99.90
57434;DHT22;43277;52.672;6.984;2024-01-15T15:14:00;2.10;99.90
57434;DHT22;43277;52.672;6.984;2024-01-15T15:16:26;2.10;99.90
57434;DHT22;43277;52.672;6.984;2024-01-15T15:18:53;2.10;99.90
57434;DHT22;43277;52.672;6.984;2024-01-15T15:21:20;2.10;99.90
57434;DHT22;43277;52.672;6.984;2024-01-15T15:23:45;2.10;99.90
57434;DHT22;43277;52.672;6.984;2024-01-15T15:26:13;2.10;99.90
57434;DHT22;43277;52.672;6.984;2024-01-15T15:28:38;2.00;99.90
57434;DHT22;43277;52.672;6.984;2024-01-15T15:31:05;2.00;99.90
57434;DHT22;43277;52.672;6.984;2024-01-15T15:33:33;1.90;99.90
57434;DHT22;43277;52.672;6.984;2024-01-15T15:35:59;1.80;99.90
57434;DHT22;43277;52.672;6.984;2024-01-15T15:38:32;1.80;99.90
57434;DHT22;43277;52.672;6.984;2024-01-15T15:40:58;1.80;99.90
57434;DHT22;43277;52.672;6.984;2024-01-15T15:43:27;1.70;99.90
57434;DHT22;43277;52.672;6.984;2024-01-15T15:45:53;1.80;99.90